createdAt,value
2023-05-12T00:03:31.661Z,4.40
2023-05-12T00:07:39.831Z,4.40
2023-05-12T00:11:48.731Z,4.30
2023-05-12T00:15:59.258Z,4.20
2023-05-12T00:20:08.830Z,5.00
2023-05-12T00:24:17.309Z,4.40
2023-05-12T00:28:25.911Z,4.50
2023-05-12T00:32:33.833Z,5.60
2023-05-12T00:36:41.429Z,4.90
2023-05-12T00:40:49.065Z,5.00
2023-05-12T00:44:57.125Z,5.00
2023-05-12T00:49:05.522Z,4.80
2023-05-12T00:53:14.113Z,4.60
2023-05-12T00:57:22.111Z,4.80
2023-05-12T01:01:31.856Z,5.10
2023-05-12T01:05:43.672Z,4.60
2023-05-12T01:09:53.436Z,4.60
2023-05-12T01:14:04.147Z,4.60
2023-05-12T01:18:14.318Z,4.90
2023-05-12T01:22:22.373Z,5.00
2023-05-12T01:26:32.541Z,4.90
2023-05-12T01:30:43.462Z,5.00
2023-05-12T01:34:52.654Z,4.90
2023-05-12T01:39:00.988Z,4.60
2023-05-12T01:43:10.793Z,5.20
2023-05-12T01:47:19.025Z,4.90
2023-05-12T01:51:27.382Z,5.10
2023-05-12T01:55:35.985Z,5.30
2023-05-12T01:59:43.678Z,5.80
2023-05-12T02:03:51.660Z,5.40
2023-05-12T02:08:00.544Z,5.00
2023-05-12T02:12:09.724Z,5.60
2023-05-12T02:16:18.585Z,5.40
2023-05-12T02:20:26.111Z,5.90
2023-05-12T02:24:33.840Z,5.90
2023-05-12T02:28:41.361Z,5.70
2023-05-12T02:32:48.929Z,5.70
2023-05-12T02:36:57.469Z,6.30
2023-05-12T02:41:05.992Z,5.90
2023-05-12T02:45:15.694Z,5.60
2023-05-12T02:49:23.826Z,5.50
2023-05-12T02:53:32.286Z,5.30
2023-05-12T02:57:40.753Z,5.50
2023-05-12T03:01:48.599Z,6.20
2023-05-12T03:05:56.689Z,6.40
2023-05-12T03:10:04.682Z,6.60
2023-05-12T03:14:12.319Z,6.70
2023-05-12T03:18:19.980Z,6.60
2023-05-12T03:22:29.558Z,6.90
2023-05-12T03:26:38.848Z,7.00
2023-05-12T03:30:46.952Z,6.90
2023-05-12T03:34:55.320Z,6.70
2023-05-12T03:39:03.655Z,6.10
2023-05-12T03:43:12.042Z,6.10
2023-05-12T03:47:19.957Z,6.50
2023-05-12T03:51:28.017Z,6.00
2023-05-12T03:55:35.560Z,5.80
2023-05-12T03:59:46.699Z,5.80
2023-05-12T04:03:54.750Z,5.90
2023-05-12T04:08:03.249Z,6.00
2023-05-12T04:12:11.628Z,5.60
2023-05-12T04:16:19.510Z,6.30
2023-05-12T04:20:26.815Z,5.70
2023-05-12T04:24:34.592Z,5.40
2023-05-12T04:28:43.252Z,5.70
2023-05-12T04:32:51.371Z,5.90
2023-05-12T04:36:59.349Z,6.00
2023-05-12T04:41:06.804Z,6.60
2023-05-12T04:45:15.185Z,6.50
2023-05-12T04:49:23.608Z,6.30
2023-05-12T04:53:34.858Z,6.80
2023-05-12T04:57:42.807Z,5.90
2023-05-12T05:01:50.356Z,5.80
2023-05-12T05:05:58.586Z,6.40
2023-05-12T05:10:08.358Z,5.80
2023-05-12T05:14:18.046Z,5.90
2023-05-12T05:18:26.312Z,6.50
2023-05-12T05:22:33.783Z,6.10
2023-05-12T05:26:42.562Z,6.10
2023-05-12T05:30:52.977Z,6.60
2023-05-12T05:35:01.216Z,5.50
2023-05-12T05:39:10.474Z,5.40
2023-05-12T05:43:21.392Z,5.50
2023-05-12T05:47:29.231Z,5.80
2023-05-12T05:51:36.939Z,5.60
2023-05-12T05:55:44.296Z,5.20
2023-05-12T05:59:52.792Z,6.10
2023-05-12T06:04:01.666Z,5.40
2023-05-12T06:08:13.594Z,5.30
2023-05-12T06:12:21.466Z,5.90
2023-05-12T06:16:29.443Z,5.20
2023-05-12T06:20:37.124Z,5.20
2023-05-12T06:24:45.171Z,5.00
2023-05-12T06:28:53.134Z,5.20
2023-05-12T06:33:00.840Z,4.90
2023-05-12T06:37:09.510Z,5.00
2023-05-12T06:41:17.698Z,5.30
2023-05-12T06:45:28.510Z,5.60
2023-05-12T06:49:37.321Z,5.00
2023-05-12T06:53:45.890Z,5.30
2023-05-12T06:57:56.105Z,6.00
2023-05-12T07:02:04.503Z,4.80
2023-05-12T07:06:12.669Z,5.40
2023-05-12T07:10:21.017Z,5.20
2023-05-12T07:14:29.687Z,5.50
2023-05-12T07:18:40.346Z,5.00
2023-05-12T07:22:55.052Z,5.70
2023-05-12T07:27:05.817Z,5.00
2023-05-12T07:31:14.301Z,5.40
2023-05-12T07:35:22.461Z,5.00
2023-05-12T07:39:32.763Z,5.30
2023-05-12T07:43:41.977Z,4.80
2023-05-12T07:47:50.780Z,4.80
2023-05-12T07:51:58.543Z,4.70
2023-05-12T07:56:08.252Z,5.10
2023-05-12T08:00:20.107Z,4.60
2023-05-12T08:04:27.388Z,4.70
2023-05-12T08:08:35.101Z,4.60
2023-05-12T08:12:43.948Z,4.80
2023-05-12T08:16:52.345Z,4.50
2023-05-12T08:21:00.585Z,4.60
2023-05-12T08:25:12.272Z,4.70
2023-05-12T08:29:21.179Z,4.50
2023-05-12T08:33:28.667Z,4.60
2023-05-12T08:37:36.866Z,4.60
2023-05-12T08:41:50.071Z,4.00
2023-05-12T08:46:02.887Z,4.20
2023-05-12T08:50:13.887Z,4.10
2023-05-12T08:54:24.705Z,4.00
2023-05-12T08:58:41.045Z,4.40
2023-05-12T09:02:54.525Z,4.50
2023-05-12T09:07:03.117Z,4.30
2023-05-12T09:11:17.872Z,4.50
2023-05-12T09:15:38.863Z,4.30
2023-05-12T09:19:48.288Z,4.10
2023-05-12T09:24:01.333Z,4.10
2023-05-12T09:28:08.950Z,3.90
2023-05-12T09:32:19.393Z,4.20
2023-05-12T09:36:30.419Z,3.80
2023-05-12T09:40:43.354Z,3.90
2023-05-12T09:45:07.704Z,3.80
2023-05-12T09:49:22.816Z,3.60
2023-05-12T09:53:45.018Z,3.80
2023-05-12T09:57:53.687Z,3.50
2023-05-12T10:02:02.877Z,3.50
2023-05-12T10:06:13.228Z,2.90
2023-05-12T10:10:23.223Z,3.30
2023-05-12T10:14:32.043Z,3.20
2023-05-12T10:18:40.286Z,2.90
2023-05-12T10:22:49.284Z,2.70
2023-05-12T10:27:17.306Z,3.00
2023-05-12T10:31:32.777Z,3.10
2023-05-12T10:35:48.649Z,2.90
2023-05-12T10:40:01.445Z,2.80
2023-05-12T10:44:12.111Z,2.70
2023-05-12T10:48:20.855Z,2.50
2023-05-12T10:52:28.149Z,2.50
2023-05-12T10:56:47.513Z,2.80
2023-05-12T11:00:56.047Z,2.40
2023-05-12T11:05:06.638Z,2.70
2023-05-12T11:09:15.422Z,2.80
2023-05-12T11:13:30.427Z,2.70
2023-05-12T11:17:42.229Z,2.40
2023-05-12T11:21:51.446Z,2.40
2023-05-12T11:26:01.785Z,2.20
2023-05-12T11:30:12.824Z,2.60
2023-05-12T11:34:26.718Z,2.40
2023-05-12T11:38:35.152Z,2.40
2023-05-12T11:42:52.845Z,2.40
2023-05-12T11:47:23.800Z,2.80
2023-05-12T11:51:33.785Z,2.50
2023-05-12T11:55:48.237Z,2.50
2023-05-12T12:00:02.053Z,2.50
2023-05-12T12:04:09.841Z,2.70
2023-05-12T12:08:18.796Z,2.80
2023-05-12T12:12:26.950Z,2.90
2023-05-12T12:16:34.975Z,3.00
2023-05-12T12:20:43.692Z,3.40
2023-05-12T12:24:51.965Z,3.00
2023-05-12T12:28:59.552Z,3.00
2023-05-12T12:33:07.037Z,2.90
2023-05-12T12:37:16.264Z,3.00
2023-05-12T12:41:27.542Z,2.40
2023-05-12T12:45:35.777Z,2.80
2023-05-12T12:49:44.237Z,2.80
2023-05-12T12:53:51.472Z,2.80
2023-05-12T12:57:59.281Z,3.00
2023-05-12T13:02:07.285Z,2.90
2023-05-12T13:06:14.938Z,2.90
2023-05-12T13:10:23.387Z,3.10
2023-05-12T13:14:30.862Z,3.10
2023-05-12T13:18:38.429Z,3.00
2023-05-12T13:22:47.499Z,2.80
2023-05-12T13:26:57.004Z,3.10
2023-05-12T13:31:06.299Z,3.10
2023-05-12T13:35:14.059Z,2.90
2023-05-12T13:39:21.597Z,2.60
2023-05-12T13:43:29.468Z,2.60
2023-05-12T13:47:37.986Z,3.00
2023-05-12T13:51:45.686Z,3.00
2023-05-12T13:55:54.124Z,2.50
2023-05-12T14:00:02.494Z,2.60
2023-05-12T14:04:10.026Z,2.50
2023-05-12T14:08:17.498Z,2.90
2023-05-12T14:12:25.701Z,2.70
2023-05-12T14:16:33.418Z,2.80
2023-05-12T14:20:41.508Z,2.60
2023-05-12T14:24:49.062Z,2.60
2023-05-12T14:28:57.268Z,2.20
2023-05-12T14:33:06.717Z,2.60
2023-05-12T14:37:15.639Z,2.70
2023-05-12T14:41:24.767Z,2.90
2023-05-12T14:45:32.971Z,2.50
2023-05-12T14:49:40.570Z,2.60
2023-05-12T14:53:48.815Z,2.60
2023-05-12T14:57:56.940Z,2.40
2023-05-12T15:02:04.451Z,2.10
2023-05-12T15:06:16.345Z,2.60
2023-05-12T15:10:25.034Z,2.30
2023-05-12T15:14:32.885Z,2.40
2023-05-12T15:18:40.496Z,2.30
2023-05-12T15:22:48.230Z,2.10
2023-05-12T15:26:58.075Z,2.20
2023-05-12T15:31:06.530Z,2.60
2023-05-12T15:35:16.451Z,2.20
2023-05-12T15:39:24.161Z,2.30
2023-05-12T15:43:31.766Z,2.40
2023-05-12T15:47:39.040Z,2.50
2023-05-12T15:51:47.924Z,2.20
2023-05-12T15:56:06.478Z,2.50
2023-05-12T16:00:18.567Z,2.20
2023-05-12T16:04:29.885Z,2.20
2023-05-12T16:08:39.856Z,2.10
2023-05-12T16:12:48.288Z,2.30
2023-05-12T16:16:56.113Z,2.20
2023-05-12T16:21:04.493Z,2.20
2023-05-12T16:25:12.515Z,2.10
2023-05-12T16:29:19.734Z,2.20
2023-05-12T16:33:27.102Z,2.30
2023-05-12T16:37:34.417Z,2.50
2023-05-12T16:41:42.182Z,2.40
2023-05-12T16:45:49.850Z,2.60
2023-05-12T16:49:59.781Z,2.10
2023-05-12T16:54:09.050Z,2.30
2023-05-12T16:58:17.589Z,2.40
2023-05-12T17:02:25.325Z,2.70
2023-05-12T17:06:33.455Z,2.60
2023-05-12T17:10:41.441Z,2.40
2023-05-12T17:14:59.436Z,2.60
2023-05-12T17:19:14.994Z,2.60
2023-05-12T17:23:25.558Z,2.50
2023-05-12T17:27:33.269Z,2.70
2023-05-12T17:31:44.577Z,2.70
2023-05-12T17:36:08.134Z,2.60
2023-05-12T17:40:19.444Z,3.00
2023-05-12T17:44:27.453Z,3.30
2023-05-12T17:48:35.308Z,2.90
2023-05-12T17:52:44.698Z,2.70
2023-05-12T17:56:56.295Z,2.40
2023-05-12T18:01:04.992Z,2.80
2023-05-12T18:05:13.217Z,2.70
2023-05-12T18:09:28.912Z,2.50
2023-05-12T18:13:37.832Z,2.80
2023-05-12T18:17:46.424Z,2.70
2023-05-12T18:21:55.194Z,3.20
2023-05-12T18:26:03.193Z,2.90
2023-05-12T18:30:14.013Z,3.00
2023-05-12T18:34:21.593Z,2.40
2023-05-12T18:38:29.178Z,2.60
2023-05-12T18:42:36.833Z,2.60
2023-05-12T18:46:44.337Z,3.00
2023-05-12T18:50:51.881Z,2.80
2023-05-12T18:54:59.972Z,2.90
2023-05-12T18:59:07.385Z,2.90
2023-05-12T19:03:17.167Z,3.00
2023-05-12T19:07:24.742Z,2.70
2023-05-12T19:11:32.468Z,2.80
2023-05-12T19:15:40.129Z,2.60
2023-05-12T19:19:48.226Z,2.90
2023-05-12T19:23:55.358Z,2.70
2023-05-12T19:28:03.206Z,3.00
2023-05-12T19:32:11.540Z,2.90
2023-05-12T19:36:18.964Z,2.80
2023-05-12T19:40:27.844Z,2.90
2023-05-12T19:44:36.550Z,2.70
2023-05-12T19:48:44.758Z,2.90
2023-05-12T19:52:53.897Z,3.10
2023-05-12T19:57:02.046Z,2.70
2023-05-12T20:01:09.747Z,3.00
2023-05-12T20:05:17.799Z,3.00
2023-05-12T20:09:26.533Z,3.20
2023-05-12T20:13:34.508Z,3.40
2023-05-12T20:17:42.194Z,2.70
2023-05-12T20:21:50.711Z,3.20
2023-05-12T20:25:58.201Z,3.30
2023-05-12T20:30:06.311Z,3.00
2023-05-12T20:34:13.991Z,3.30
2023-05-12T20:38:24.228Z,3.30
2023-05-12T20:42:32.567Z,3.60
2023-05-12T20:46:40.986Z,3.40
2023-05-12T20:50:50.151Z,3.80
2023-05-12T20:55:00.817Z,3.40
2023-05-12T20:59:08.675Z,3.50
2023-05-12T21:03:17.324Z,3.70
2023-05-12T21:07:25.895Z,3.40
2023-05-12T21:11:33.742Z,3.70
2023-05-12T21:15:41.653Z,3.60
2023-05-12T21:19:49.447Z,3.70
2023-05-12T21:23:58.772Z,3.70
2023-05-12T21:28:07.391Z,4.20
2023-05-12T21:32:16.939Z,3.90
2023-05-12T21:36:25.664Z,3.80
2023-05-12T21:40:33.277Z,3.60
2023-05-12T21:44:41.365Z,4.20
2023-05-12T21:48:49.197Z,3.90
2023-05-12T21:52:56.876Z,4.30
2023-05-12T21:57:04.672Z,3.90
2023-05-12T22:01:13.093Z,3.40
2023-05-12T22:05:21.146Z,3.90
2023-05-12T22:09:30.962Z,3.80
2023-05-12T22:13:43.686Z,3.90
2023-05-12T22:17:51.116Z,4.10
2023-05-12T22:21:58.686Z,3.80
2023-05-12T22:26:06.408Z,3.90
2023-05-12T22:30:16.137Z,3.90
2023-05-12T22:34:24.280Z,4.10
2023-05-12T22:38:32.488Z,4.00
2023-05-12T22:42:40.300Z,3.90
2023-05-12T22:46:48.627Z,3.50
2023-05-12T22:50:58.217Z,4.10
2023-05-12T22:55:06.661Z,3.70
2023-05-12T22:59:15.473Z,4.40
2023-05-12T23:03:23.331Z,3.70
2023-05-12T23:07:31.304Z,3.70
2023-05-12T23:11:39.125Z,4.20
2023-05-12T23:15:46.985Z,4.40
2023-05-12T23:19:56.550Z,3.90
2023-05-12T23:24:04.666Z,4.40
2023-05-12T23:28:12.642Z,4.10
2023-05-12T23:32:20.232Z,4.00
2023-05-12T23:36:28.927Z,3.90
2023-05-12T23:40:39.375Z,4.00
2023-05-12T23:44:47.248Z,4.00
2023-05-12T23:48:54.688Z,4.20
2023-05-12T23:53:02.958Z,3.60
2023-05-12T23:57:10.986Z,4.70
